sensor_id;sensor_type;location;lat;lon;timestamp;P1;durP1;ratioP1;P2;durP2;ratioP2
78752;SDS011;68072;51.688;7.842;2023-05-19T00:00:18;6.10;;;2.58;;
78752;SDS011;68072;51.688;7.842;2023-05-19T00:02:44;6.07;;;3.33;;
78752;SDS011;68072;51.688;7.842;2023-05-19T00:05:10;4.88;;;3.00;;
78752;SDS011;68072;51.688;7.842;2023-05-19T00:07:39;5.38;;;3.10;;
78752;SDS011;68072;51.688;7.842;2023-05-19T00:10:05;8.63;;;3.05;;
78752;SDS011;68072;51.688;7.842;2023-05-19T00:12:31;5.63;;;3.05;;
78752;SDS011;68072;51.688;7.842;2023-05-19T00:14:57;6.50;;;2.92;;
78752;SDS011;68072;51.688;7.842;2023-05-19T00:17:22;6.07;;;3.10;;
78752;SDS011;68072;51.688;7.842;2023-05-19T00:19:48;7.25;;;3.08;;
78752;SDS011;68072;51.688;7.842;2023-05-19T00:22:14;8.32;;;3.03;;
78752;SDS011;68072;51.688;7.842;2023-05-19T00:24:39;7.80;;;3.17;;
78752;SDS011;68072;51.688;7.842;2023-05-19T00:27:05;7.35;;;3.42;;
78752;SDS011;68072;51.688;7.842;2023-05-19T00:29:30;4.90;;;2.95;;
78752;SDS011;68072;51.688;7.842;2023-05-19T00:31:55;6.88;;;2.95;;
78752;SDS011;68072;51.688;7.842;2023-05-19T00:34:21;8.60;;;3.22;;
78752;SDS011;68072;51.688;7.842;2023-05-19T00:36:46;5.90;;;2.90;;
78752;SDS011;68072;51.688;7.842;2023-05-19T00:39:12;3.85;;;2.97;;
78752;SDS011;68072;51.688;7.842;2023-05-19T00:41:37;4.85;;;3.40;;
78752;SDS011;68072;51.688;7.842;2023-05-19T00:44:03;8.93;;;2.90;;
78752;SDS011;68072;51.688;7.842;2023-05-19T00:46:28;9.02;;;3.42;;
78752;SDS011;68072;51.688;7.842;2023-05-19T00:48:54;6.80;;;2.97;;
78752;SDS011;68072;51.688;7.842;2023-05-19T00:51:20;5.63;;;3.38;;
78752;SDS011;68072;51.688;7.842;2023-05-19T00:53:46;7.22;;;3.28;;
78752;SDS011;68072;51.688;7.842;2023-05-19T00:56:13;4.78;;;3.10;;
78752;SDS011;68072;51.688;7.842;2023-05-19T00:58:40;7.20;;;2.92;;
78752;SDS011;68072;51.688;7.842;2023-05-19T01:01:05;6.22;;;2.88;;
78752;SDS011;68072;51.688;7.842;2023-05-19T01:03:33;7.75;;;3.20;;
78752;SDS011;68072;51.688;7.842;2023-05-19T01:05:59;9.65;;;3.50;;
78752;SDS011;68072;51.688;7.842;2023-05-19T01:08:29;5.75;;;3.50;;
78752;SDS011;68072;51.688;7.842;2023-05-19T01:10:55;5.95;;;3.20;;
78752;SDS011;68072;51.688;7.842;2023-05-19T01:13:21;7.53;;;3.33;;
78752;SDS011;68072;51.688;7.842;2023-05-19T01:32:49;5.68;;;3.40;;
78752;SDS011;68072;51.688;7.842;2023-05-19T01:35:17;8.68;;;3.42;;
78752;SDS011;68072;51.688;7.842;2023-05-19T01:37:43;10.02;;;3.65;;
78752;SDS011;68072;51.688;7.842;2023-05-19T01:40:09;7.25;;;3.20;;
78752;SDS011;68072;51.688;7.842;2023-05-19T01:42:36;5.28;;;2.80;;
78752;SDS011;68072;51.688;7.842;2023-05-19T01:45:04;3.90;;;3.05;;
78752;SDS011;68072;51.688;7.842;2023-05-19T01:47:34;7.55;;;3.60;;
78752;SDS011;68072;51.688;7.842;2023-05-19T01:50:02;7.68;;;3.10;;
78752;SDS011;68072;51.688;7.842;2023-05-19T01:52:28;6.03;;;3.67;;
78752;SDS011;68072;51.688;7.842;2023-05-19T01:54:53;7.18;;;3.13;;
78752;SDS011;68072;51.688;7.842;2023-05-19T01:57:22;9.73;;;3.67;;
78752;SDS011;68072;51.688;7.842;2023-05-19T02:00:02;7.93;;;3.47;;
78752;SDS011;68072;51.688;7.842;2023-05-19T02:02:33;6.78;;;3.90;;
78752;SDS011;68072;51.688;7.842;2023-05-19T02:08:16;9.32;;;3.50;;
78752;SDS011;68072;51.688;7.842;2023-05-19T02:11:05;5.80;;;3.47;;
78752;SDS011;68072;51.688;7.842;2023-05-19T02:13:32;7.00;;;3.67;;
78752;SDS011;68072;51.688;7.842;2023-05-19T02:16:02;6.95;;;3.85;;
78752;SDS011;68072;51.688;7.842;2023-05-19T02:18:29;7.47;;;3.10;;
78752;SDS011;68072;51.688;7.842;2023-05-19T02:20:57;6.20;;;2.78;;
78752;SDS011;68072;51.688;7.842;2023-05-19T02:23:22;6.10;;;4.30;;
78752;SDS011;68072;51.688;7.842;2023-05-19T02:25:48;5.28;;;3.40;;
78752;SDS011;68072;51.688;7.842;2023-05-19T02:28:13;6.80;;;4.00;;
78752;SDS011;68072;51.688;7.842;2023-05-19T02:30:39;7.57;;;4.13;;
78752;SDS011;68072;51.688;7.842;2023-05-19T02:33:04;8.13;;;3.70;;
78752;SDS011;68072;51.688;7.842;2023-05-19T02:35:30;8.02;;;3.75;;
78752;SDS011;68072;51.688;7.842;2023-05-19T02:37:56;6.63;;;3.55;;
78752;SDS011;68072;51.688;7.842;2023-05-19T02:40:21;7.45;;;3.72;;
78752;SDS011;68072;51.688;7.842;2023-05-19T02:42:47;7.38;;;4.20;;
78752;SDS011;68072;51.688;7.842;2023-05-19T02:45:13;9.77;;;4.00;;
78752;SDS011;68072;51.688;7.842;2023-05-19T02:47:38;5.78;;;3.65;;
78752;SDS011;68072;51.688;7.842;2023-05-19T02:50:05;9.15;;;4.43;;
78752;SDS011;68072;51.688;7.842;2023-05-19T02:52:34;13.27;;;4.40;;
78752;SDS011;68072;51.688;7.842;2023-05-19T02:55:12;7.72;;;3.80;;
78752;SDS011;68072;51.688;7.842;2023-05-19T02:57:41;10.55;;;4.03;;
78752;SDS011;68072;51.688;7.842;2023-05-19T03:00:06;8.38;;;3.60;;
78752;SDS011;68072;51.688;7.842;2023-05-19T03:02:32;7.07;;;3.63;;
78752;SDS011;68072;51.688;7.842;2023-05-19T03:04:59;9.48;;;4.70;;
78752;SDS011;68072;51.688;7.842;2023-05-19T03:07:25;8.80;;;4.10;;
78752;SDS011;68072;51.688;7.842;2023-05-19T03:09:51;9.55;;;4.18;;
78752;SDS011;68072;51.688;7.842;2023-05-19T03:12:17;8.05;;;3.67;;
78752;SDS011;68072;51.688;7.842;2023-05-19T03:14:42;10.10;;;4.63;;
78752;SDS011;68072;51.688;7.842;2023-05-19T03:17:08;8.75;;;3.92;;
78752;SDS011;68072;51.688;7.842;2023-05-19T03:19:34;6.63;;;3.72;;
78752;SDS011;68072;51.688;7.842;2023-05-19T03:22:00;9.15;;;4.20;;
78752;SDS011;68072;51.688;7.842;2023-05-19T03:24:25;9.57;;;4.25;;
78752;SDS011;68072;51.688;7.842;2023-05-19T03:26:51;10.73;;;4.25;;
78752;SDS011;68072;51.688;7.842;2023-05-19T03:29:16;10.05;;;4.22;;
78752;SDS011;68072;51.688;7.842;2023-05-19T03:31:42;8.07;;;4.60;;
78752;SDS011;68072;51.688;7.842;2023-05-19T03:34:07;8.77;;;4.50;;
78752;SDS011;68072;51.688;7.842;2023-05-19T03:36:33;7.40;;;4.20;;
78752;SDS011;68072;51.688;7.842;2023-05-19T03:39:03;7.43;;;4.40;;
78752;SDS011;68072;51.688;7.842;2023-05-19T03:41:29;11.43;;;4.15;;
78752;SDS011;68072;51.688;7.842;2023-05-19T03:43:54;6.10;;;3.92;;
78752;SDS011;68072;51.688;7.842;2023-05-19T03:46:20;5.65;;;4.50;;
78752;SDS011;68072;51.688;7.842;2023-05-19T03:48:45;11.73;;;4.43;;
78752;SDS011;68072;51.688;7.842;2023-05-19T03:51:10;7.43;;;4.03;;
78752;SDS011;68072;51.688;7.842;2023-05-19T03:53:36;12.27;;;4.20;;
78752;SDS011;68072;51.688;7.842;2023-05-19T03:56:02;8.18;;;3.92;;
78752;SDS011;68072;51.688;7.842;2023-05-19T03:58:27;8.90;;;4.18;;
78752;SDS011;68072;51.688;7.842;2023-05-19T04:00:54;9.80;;;4.25;;
78752;SDS011;68072;51.688;7.842;2023-05-19T04:03:19;9.68;;;4.07;;
78752;SDS011;68072;51.688;7.842;2023-05-19T04:05:45;9.77;;;4.53;;
78752;SDS011;68072;51.688;7.842;2023-05-19T04:08:10;8.88;;;4.43;;
78752;SDS011;68072;51.688;7.842;2023-05-19T04:10:36;8.50;;;4.18;;
78752;SDS011;68072;51.688;7.842;2023-05-19T04:13:01;7.85;;;5.13;;
78752;SDS011;68072;51.688;7.842;2023-05-19T04:15:27;7.53;;;4.18;;
78752;SDS011;68072;51.688;7.842;2023-05-19T04:17:52;12.00;;;5.60;;
78752;SDS011;68072;51.688;7.842;2023-05-19T04:20:18;7.75;;;4.50;;
78752;SDS011;68072;51.688;7.842;2023-05-19T04:22:45;10.57;;;4.60;;
78752;SDS011;68072;51.688;7.842;2023-05-19T04:25:11;8.57;;;4.47;;
78752;SDS011;68072;51.688;7.842;2023-05-19T04:27:36;8.88;;;4.65;;
78752;SDS011;68072;51.688;7.842;2023-05-19T04:32:28;12.07;;;5.25;;
78752;SDS011;68072;51.688;7.842;2023-05-19T04:34:55;10.10;;;4.90;;
78752;SDS011;68072;51.688;7.842;2023-05-19T04:37:22;8.65;;;4.85;;
78752;SDS011;68072;51.688;7.842;2023-05-19T04:39:51;8.35;;;4.40;;
78752;SDS011;68072;51.688;7.842;2023-05-19T04:42:16;8.52;;;4.55;;
78752;SDS011;68072;51.688;7.842;2023-05-19T04:44:43;13.15;;;5.45;;
78752;SDS011;68072;51.688;7.842;2023-05-19T04:47:09;6.15;;;4.40;;
78752;SDS011;68072;51.688;7.842;2023-05-19T04:49:35;8.98;;;4.05;;
78752;SDS011;68072;51.688;7.842;2023-05-19T04:52:06;9.35;;;4.05;;
78752;SDS011;68072;51.688;7.842;2023-05-19T04:54:35;8.85;;;4.05;;
78752;SDS011;68072;51.688;7.842;2023-05-19T04:57:01;6.97;;;4.20;;
78752;SDS011;68072;51.688;7.842;2023-05-19T04:59:27;6.20;;;3.70;;
78752;SDS011;68072;51.688;7.842;2023-05-19T05:01:52;7.93;;;4.05;;
78752;SDS011;68072;51.688;7.842;2023-05-19T05:04:18;6.75;;;4.05;;
78752;SDS011;68072;51.688;7.842;2023-05-19T05:06:43;4.90;;;4.05;;
78752;SDS011;68072;51.688;7.842;2023-05-19T05:09:13;5.82;;;3.92;;
78752;SDS011;68072;51.688;7.842;2023-05-19T05:11:39;10.27;;;4.72;;
78752;SDS011;68072;51.688;7.842;2023-05-19T05:14:05;8.25;;;4.47;;
78752;SDS011;68072;51.688;7.842;2023-05-19T05:16:30;6.47;;;4.30;;
78752;SDS011;68072;51.688;7.842;2023-05-19T05:18:56;9.48;;;4.45;;
78752;SDS011;68072;51.688;7.842;2023-05-19T05:21:22;8.88;;;4.03;;
78752;SDS011;68072;51.688;7.842;2023-05-19T05:23:49;12.85;;;4.60;;
78752;SDS011;68072;51.688;7.842;2023-05-19T05:26:16;8.02;;;4.18;;
78752;SDS011;68072;51.688;7.842;2023-05-19T05:28:43;7.15;;;3.80;;
78752;SDS011;68072;51.688;7.842;2023-05-19T05:31:08;5.60;;;3.33;;
78752;SDS011;68072;51.688;7.842;2023-05-19T05:33:34;7.15;;;3.90;;
78752;SDS011;68072;51.688;7.842;2023-05-19T05:35:59;7.82;;;4.18;;
78752;SDS011;68072;51.688;7.842;2023-05-19T05:38:25;8.30;;;3.38;;
78752;SDS011;68072;51.688;7.842;2023-05-19T05:40:50;8.38;;;3.75;;
78752;SDS011;68072;51.688;7.842;2023-05-19T05:43:15;8.27;;;3.80;;
78752;SDS011;68072;51.688;7.842;2023-05-19T05:45:41;6.57;;;3.50;;
78752;SDS011;68072;51.688;7.842;2023-05-19T05:48:06;10.77;;;3.55;;
78752;SDS011;68072;51.688;7.842;2023-05-19T05:50:32;9.30;;;3.83;;
78752;SDS011;68072;51.688;7.842;2023-05-19T05:52:58;7.00;;;3.60;;
78752;SDS011;68072;51.688;7.842;2023-05-19T05:55:25;8.10;;;3.70;;
78752;SDS011;68072;51.688;7.842;2023-05-19T05:57:51;6.20;;;3.13;;
78752;SDS011;68072;51.688;7.842;2023-05-19T06:00:17;7.38;;;3.28;;
78752;SDS011;68072;51.688;7.842;2023-05-19T06:02:48;7.80;;;3.50;;
78752;SDS011;68072;51.688;7.842;2023-05-19T06:05:14;8.10;;;3.42;;
78752;SDS011;68072;51.688;7.842;2023-05-19T06:07:40;6.28;;;3.13;;
78752;SDS011;68072;51.688;7.842;2023-05-19T06:10:06;6.97;;;2.63;;
78752;SDS011;68072;51.688;7.842;2023-05-19T06:12:32;3.58;;;3.28;;
78752;SDS011;68072;51.688;7.842;2023-05-19T06:14:58;6.53;;;3.03;;
78752;SDS011;68072;51.688;7.842;2023-05-19T06:17:24;4.72;;;2.63;;
78752;SDS011;68072;51.688;7.842;2023-05-19T06:19:49;3.50;;;2.70;;
78752;SDS011;68072;51.688;7.842;2023-05-19T06:22:15;5.38;;;3.03;;
78752;SDS011;68072;51.688;7.842;2023-05-19T06:24:40;6.38;;;2.50;;
78752;SDS011;68072;51.688;7.842;2023-05-19T06:27:05;8.15;;;2.58;;
78752;SDS011;68072;51.688;7.842;2023-05-19T06:29:31;7.03;;;2.60;;
78752;SDS011;68072;51.688;7.842;2023-05-19T06:31:56;4.45;;;2.30;;
78752;SDS011;68072;51.688;7.842;2023-05-19T06:34:22;5.90;;;2.50;;
78752;SDS011;68072;51.688;7.842;2023-05-19T06:36:47;5.50;;;2.30;;
78752;SDS011;68072;51.688;7.842;2023-05-19T06:39:12;8.57;;;2.72;;
78752;SDS011;68072;51.688;7.842;2023-05-19T06:41:38;7.97;;;2.40;;
78752;SDS011;68072;51.688;7.842;2023-05-19T06:44:05;5.20;;;2.25;;
78752;SDS011;68072;51.688;7.842;2023-05-19T06:46:30;3.78;;;2.00;;
78752;SDS011;68072;51.688;7.842;2023-05-19T06:48:56;7.35;;;2.38;;
78752;SDS011;68072;51.688;7.842;2023-05-19T06:51:21;7.63;;;2.15;;
78752;SDS011;68072;51.688;7.842;2023-05-19T06:53:47;7.03;;;2.65;;
78752;SDS011;68072;51.688;7.842;2023-05-19T06:56:13;6.80;;;2.65;;
78752;SDS011;68072;51.688;7.842;2023-05-19T06:58:39;3.42;;;1.70;;
78752;SDS011;68072;51.688;7.842;2023-05-19T07:01:05;5.85;;;2.28;;
78752;SDS011;68072;51.688;7.842;2023-05-19T07:03:30;5.00;;;2.05;;
78752;SDS011;68072;51.688;7.842;2023-05-19T07:05:56;10.93;;;2.72;;
78752;SDS011;68072;51.688;7.842;2023-05-19T07:08:21;4.10;;;1.90;;
78752;SDS011;68072;51.688;7.842;2023-05-19T07:10:47;7.20;;;2.15;;
78752;SDS011;68072;51.688;7.842;2023-05-19T07:13:12;3.88;;;2.10;;
78752;SDS011;68072;51.688;7.842;2023-05-19T07:15:37;6.63;;;2.00;;
78752;SDS011;68072;51.688;7.842;2023-05-19T07:18:03;7.15;;;2.85;;
78752;SDS011;68072;51.688;7.842;2023-05-19T07:20:28;5.05;;;1.80;;
78752;SDS011;68072;51.688;7.842;2023-05-19T07:22:54;3.38;;;1.95;;
78752;SDS011;68072;51.688;7.842;2023-05-19T07:25:19;6.68;;;1.85;;
78752;SDS011;68072;51.688;7.842;2023-05-19T07:27:45;4.88;;;2.10;;
78752;SDS011;68072;51.688;7.842;2023-05-19T07:30:10;5.15;;;1.90;;
78752;SDS011;68072;51.688;7.842;2023-05-19T07:32:36;5.40;;;1.67;;
78752;SDS011;68072;51.688;7.842;2023-05-19T07:35:02;4.55;;;1.90;;
78752;SDS011;68072;51.688;7.842;2023-05-19T07:37:27;5.80;;;1.90;;
78752;SDS011;68072;51.688;7.842;2023-05-19T07:39:52;7.38;;;2.38;;
78752;SDS011;68072;51.688;7.842;2023-05-19T07:42:18;5.05;;;1.88;;
78752;SDS011;68072;51.688;7.842;2023-05-19T07:44:43;6.00;;;2.20;;
78752;SDS011;68072;51.688;7.842;2023-05-19T07:47:09;5.72;;;2.10;;
78752;SDS011;68072;51.688;7.842;2023-05-19T07:49:34;8.18;;;2.15;;
78752;SDS011;68072;51.688;7.842;2023-05-19T07:51:59;6.82;;;1.92;;
78752;SDS011;68072;51.688;7.842;2023-05-19T07:54:25;5.78;;;1.85;;
78752;SDS011;68072;51.688;7.842;2023-05-19T07:56:50;7.60;;;2.17;;
78752;SDS011;68072;51.688;7.842;2023-05-19T07:59:16;4.10;;;1.55;;
78752;SDS011;68072;51.688;7.842;2023-05-19T08:01:41;5.50;;;1.90;;
78752;SDS011;68072;51.688;7.842;2023-05-19T08:04:07;5.72;;;1.90;;
78752;SDS011;68072;51.688;7.842;2023-05-19T08:06:32;5.35;;;1.98;;
78752;SDS011;68072;51.688;7.842;2023-05-19T08:08:57;4.47;;;1.77;;
78752;SDS011;68072;51.688;7.842;2023-05-19T08:11:23;4.03;;;1.80;;
78752;SDS011;68072;51.688;7.842;2023-05-19T08:13:49;5.53;;;2.08;;
78752;SDS011;68072;51.688;7.842;2023-05-19T08:16:14;3.45;;;1.75;;
78752;SDS011;68072;51.688;7.842;2023-05-19T08:18:40;5.18;;;1.80;;
78752;SDS011;68072;51.688;7.842;2023-05-19T08:21:05;4.13;;;1.83;;
78752;SDS011;68072;51.688;7.842;2023-05-19T08:23:31;3.55;;;1.70;;
78752;SDS011;68072;51.688;7.842;2023-05-19T08:25:56;4.72;;;2.10;;
78752;SDS011;68072;51.688;7.842;2023-05-19T08:28:22;5.55;;;2.00;;
78752;SDS011;68072;51.688;7.842;2023-05-19T08:30:49;6.93;;;1.90;;
78752;SDS011;68072;51.688;7.842;2023-05-19T08:33:14;5.55;;;1.70;;
78752;SDS011;68072;51.688;7.842;2023-05-19T08:35:40;9.30;;;2.17;;
78752;SDS011;68072;51.688;7.842;2023-05-19T08:38:05;5.32;;;1.60;;
78752;SDS011;68072;51.688;7.842;2023-05-19T08:40:31;5.88;;;2.22;;
78752;SDS011;68072;51.688;7.842;2023-05-19T08:42:57;5.75;;;1.77;;
78752;SDS011;68072;51.688;7.842;2023-05-19T08:45:23;6.50;;;1.88;;
78752;SDS011;68072;51.688;7.842;2023-05-19T08:47:48;1.50;;;1.30;;
78752;SDS011;68072;51.688;7.842;2023-05-19T08:50:16;3.08;;;1.58;;
78752;SDS011;68072;51.688;7.842;2023-05-19T08:52:50;1.83;;;1.60;;
78752;SDS011;68072;51.688;7.842;2023-05-19T08:57:51;3.63;;;1.50;;
78752;SDS011;68072;51.688;7.842;2023-05-19T09:00:17;6.50;;;1.67;;
78752;SDS011;68072;51.688;7.842;2023-05-19T09:02:44;4.82;;;1.63;;
78752;SDS011;68072;51.688;7.842;2023-05-19T09:05:12;2.90;;;1.58;;
78752;SDS011;68072;51.688;7.842;2023-05-19T09:07:40;6.10;;;1.98;;
78752;SDS011;68072;51.688;7.842;2023-05-19T09:10:07;3.58;;;1.48;;
78752;SDS011;68072;51.688;7.842;2023-05-19T09:12:33;6.50;;;1.58;;
78752;SDS011;68072;51.688;7.842;2023-05-19T09:14:58;3.60;;;1.80;;
78752;SDS011;68072;51.688;7.842;2023-05-19T09:17:25;2.55;;;1.80;;
78752;SDS011;68072;51.688;7.842;2023-05-19T09:19:50;3.35;;;1.70;;
78752;SDS011;68072;51.688;7.842;2023-05-19T09:22:15;3.60;;;1.70;;
78752;SDS011;68072;51.688;7.842;2023-05-19T09:24:44;4.10;;;1.77;;
78752;SDS011;68072;51.688;7.842;2023-05-19T09:27:13;5.70;;;1.80;;
78752;SDS011;68072;51.688;7.842;2023-05-19T09:29:39;2.22;;;1.60;;
78752;SDS011;68072;51.688;7.842;2023-05-19T09:32:04;2.00;;;1.40;;
78752;SDS011;68072;51.688;7.842;2023-05-19T09:34:30;3.97;;;1.67;;
78752;SDS011;68072;51.688;7.842;2023-05-19T09:36:55;4.07;;;1.63;;
78752;SDS011;68072;51.688;7.842;2023-05-19T09:41:54;3.20;;;1.63;;
78752;SDS011;68072;51.688;7.842;2023-05-19T09:44:22;5.68;;;1.60;;
78752;SDS011;68072;51.688;7.842;2023-05-19T09:46:52;7.13;;;1.75;;
78752;SDS011;68072;51.688;7.842;2023-05-19T09:49:22;5.53;;;1.60;;
78752;SDS011;68072;51.688;7.842;2023-05-19T09:51:54;3.20;;;1.42;;
78752;SDS011;68072;51.688;7.842;2023-05-19T09:54:21;4.25;;;1.50;;
78752;SDS011;68072;51.688;7.842;2023-05-19T09:56:51;3.85;;;1.95;;
78752;SDS011;68072;51.688;7.842;2023-05-19T09:59:22;5.50;;;1.83;;
78752;SDS011;68072;51.688;7.842;2023-05-19T10:01:49;6.32;;;1.83;;
78752;SDS011;68072;51.688;7.842;2023-05-19T10:04:18;5.25;;;1.77;;
78752;SDS011;68072;51.688;7.842;2023-05-19T10:06:45;3.60;;;1.50;;
78752;SDS011;68072;51.688;7.842;2023-05-19T10:09:12;3.88;;;1.63;;
78752;SDS011;68072;51.688;7.842;2023-05-19T10:11:37;4.65;;;1.70;;
78752;SDS011;68072;51.688;7.842;2023-05-19T10:14:03;2.33;;;1.60;;
78752;SDS011;68072;51.688;7.842;2023-05-19T10:16:29;2.67;;;1.58;;
78752;SDS011;68072;51.688;7.842;2023-05-19T10:18:55;8.60;;;3.45;;
78752;SDS011;68072;51.688;7.842;2023-05-19T10:21:22;3.63;;;1.52;;
78752;SDS011;68072;51.688;7.842;2023-05-19T10:23:47;3.03;;;1.58;;
78752;SDS011;68072;51.688;7.842;2023-05-19T10:26:13;2.15;;;1.42;;
78752;SDS011;68072;51.688;7.842;2023-05-19T10:28:40;6.32;;;1.88;;
78752;SDS011;68072;51.688;7.842;2023-05-19T10:31:08;2.55;;;1.50;;
78752;SDS011;68072;51.688;7.842;2023-05-19T10:38:58;4.38;;;1.98;;
78752;SDS011;68072;51.688;7.842;2023-05-19T10:46:51;5.13;;;1.75;;
78752;SDS011;68072;51.688;7.842;2023-05-19T10:49:20;2.28;;;1.58;;
78752;SDS011;68072;51.688;7.842;2023-05-19T10:51:46;5.65;;;1.80;;
78752;SDS011;68072;51.688;7.842;2023-05-19T10:54:12;2.65;;;1.73;;
78752;SDS011;68072;51.688;7.842;2023-05-19T10:56:40;6.38;;;1.90;;
78752;SDS011;68072;51.688;7.842;2023-05-19T10:59:28;3.63;;;1.70;;
78752;SDS011;68072;51.688;7.842;2023-05-19T11:01:54;4.07;;;1.80;;
78752;SDS011;68072;51.688;7.842;2023-05-19T11:04:20;3.13;;;1.55;;
78752;SDS011;68072;51.688;7.842;2023-05-19T11:07:03;3.58;;;1.52;;
78752;SDS011;68072;51.688;7.842;2023-05-19T11:12:00;3.83;;;1.27;;
78752;SDS011;68072;51.688;7.842;2023-05-19T11:14:27;3.47;;;1.65;;
78752;SDS011;68072;51.688;7.842;2023-05-19T11:19:29;3.28;;;1.52;;
78752;SDS011;68072;51.688;7.842;2023-05-19T11:21:56;3.90;;;1.67;;
78752;SDS011;68072;51.688;7.842;2023-05-19T11:24:32;2.00;;;1.48;;
78752;SDS011;68072;51.688;7.842;2023-05-19T11:26:59;3.50;;;1.50;;
78752;SDS011;68072;51.688;7.842;2023-05-19T11:31:50;2.05;;;1.35;;
78752;SDS011;68072;51.688;7.842;2023-05-19T11:36:41;5.30;;;1.33;;
78752;SDS011;68072;51.688;7.842;2023-05-19T11:39:07;3.60;;;1.38;;
78752;SDS011;68072;51.688;7.842;2023-05-19T11:44:03;2.92;;;1.60;;
78752;SDS011;68072;51.688;7.842;2023-05-19T11:46:33;2.03;;;1.45;;
78752;SDS011;68072;51.688;7.842;2023-05-19T11:51:26;3.50;;;1.50;;
78752;SDS011;68072;51.688;7.842;2023-05-19T11:56:18;2.45;;;1.40;;
78752;SDS011;68072;51.688;7.842;2023-05-19T12:01:08;3.83;;;1.63;;
78752;SDS011;68072;51.688;7.842;2023-05-19T12:03:35;2.05;;;1.48;;
78752;SDS011;68072;51.688;7.842;2023-05-19T12:08:25;3.23;;;1.63;;
78752;SDS011;68072;51.688;7.842;2023-05-19T12:10:51;4.65;;;1.70;;
78752;SDS011;68072;51.688;7.842;2023-05-19T12:13:17;3.95;;;1.42;;
78752;SDS011;68072;51.688;7.842;2023-05-19T12:15:43;5.40;;;1.48;;
78752;SDS011;68072;51.688;7.842;2023-05-19T12:18:08;3.15;;;1.60;;
78752;SDS011;68072;51.688;7.842;2023-05-19T12:20:34;2.58;;;1.50;;
78752;SDS011;68072;51.688;7.842;2023-05-19T12:23:00;2.28;;;1.50;;
78752;SDS011;68072;51.688;7.842;2023-05-19T12:25:25;2.08;;;1.60;;
78752;SDS011;68072;51.688;7.842;2023-05-19T12:27:55;3.83;;;1.80;;
78752;SDS011;68072;51.688;7.842;2023-05-19T12:30:25;2.80;;;1.70;;
78752;SDS011;68072;51.688;7.842;2023-05-19T12:32:52;2.30;;;1.70;;
78752;SDS011;68072;51.688;7.842;2023-05-19T12:35:18;5.65;;;1.92;;
78752;SDS011;68072;51.688;7.842;2023-05-19T12:37:44;3.40;;;1.70;;
78752;SDS011;68072;51.688;7.842;2023-05-19T12:40:13;2.92;;;1.65;;
78752;SDS011;68072;51.688;7.842;2023-05-19T12:42:42;2.20;;;1.40;;
78752;SDS011;68072;51.688;7.842;2023-05-19T12:45:08;3.50;;;1.52;;
78752;SDS011;68072;51.688;7.842;2023-05-19T12:47:34;3.15;;;1.58;;
78752;SDS011;68072;51.688;7.842;2023-05-19T12:52:26;3.28;;;1.70;;
78752;SDS011;68072;51.688;7.842;2023-05-19T12:54:59;2.30;;;1.40;;
78752;SDS011;68072;51.688;7.842;2023-05-19T12:57:26;3.22;;;1.60;;
78752;SDS011;68072;51.688;7.842;2023-05-19T12:59:52;3.00;;;1.55;;
78752;SDS011;68072;51.688;7.842;2023-05-19T13:02:17;2.95;;;1.50;;
78752;SDS011;68072;51.688;7.842;2023-05-19T13:04:43;1.83;;;1.52;;
78752;SDS011;68072;51.688;7.842;2023-05-19T13:07:08;1.80;;;1.42;;
78752;SDS011;68072;51.688;7.842;2023-05-19T13:09:34;3.95;;;1.58;;
78752;SDS011;68072;51.688;7.842;2023-05-19T13:12:00;5.75;;;1.58;;
78752;SDS011;68072;51.688;7.842;2023-05-19T13:14:26;2.75;;;1.40;;
78752;SDS011;68072;51.688;7.842;2023-05-19T13:16:51;2.95;;;1.67;;
78752;SDS011;68072;51.688;7.842;2023-05-19T13:19:17;2.17;;;1.40;;
78752;SDS011;68072;51.688;7.842;2023-05-19T13:21:43;4.38;;;1.50;;
78752;SDS011;68072;51.688;7.842;2023-05-19T13:24:11;3.15;;;1.40;;
78752;SDS011;68072;51.688;7.842;2023-05-19T13:26:37;3.47;;;1.48;;
78752;SDS011;68072;51.688;7.842;2023-05-19T13:29:03;3.00;;;1.63;;
78752;SDS011;68072;51.688;7.842;2023-05-19T13:31:28;4.10;;;1.60;;
78752;SDS011;68072;51.688;7.842;2023-05-19T13:33:54;2.30;;;1.52;;
78752;SDS011;68072;51.688;7.842;2023-05-19T13:36:19;2.97;;;1.63;;
78752;SDS011;68072;51.688;7.842;2023-05-19T13:38:45;5.82;;;1.70;;
78752;SDS011;68072;51.688;7.842;2023-05-19T13:41:10;2.17;;;1.30;;
78752;SDS011;68072;51.688;7.842;2023-05-19T13:43:36;5.18;;;1.50;;
78752;SDS011;68072;51.688;7.842;2023-05-19T13:48:27;2.50;;;1.73;;
78752;SDS011;68072;51.688;7.842;2023-05-19T13:50:52;2.85;;;1.45;;
78752;SDS011;68072;51.688;7.842;2023-05-19T13:53:19;5.68;;;1.52;;
78752;SDS011;68072;51.688;7.842;2023-05-19T13:55:44;6.68;;;1.52;;
78752;SDS011;68072;51.688;7.842;2023-05-19T13:58:10;3.45;;;1.60;;
78752;SDS011;68072;51.688;7.842;2023-05-19T14:00:37;4.63;;;1.48;;
78752;SDS011;68072;51.688;7.842;2023-05-19T14:03:03;2.95;;;1.50;;
78752;SDS011;68072;51.688;7.842;2023-05-19T14:05:29;2.58;;;1.48;;
78752;SDS011;68072;51.688;7.842;2023-05-19T14:07:55;2.55;;;1.30;;
78752;SDS011;68072;51.688;7.842;2023-05-19T14:10:20;4.10;;;1.67;;
78752;SDS011;68072;51.688;7.842;2023-05-19T14:12:45;1.95;;;1.50;;
78752;SDS011;68072;51.688;7.842;2023-05-19T14:15:11;4.93;;;1.60;;
78752;SDS011;68072;51.688;7.842;2023-05-19T14:17:36;2.45;;;1.60;;
78752;SDS011;68072;51.688;7.842;2023-05-19T14:20:02;3.70;;;1.55;;
78752;SDS011;68072;51.688;7.842;2023-05-19T14:22:28;3.40;;;1.67;;
78752;SDS011;68072;51.688;7.842;2023-05-19T14:24:53;3.58;;;1.60;;
78752;SDS011;68072;51.688;7.842;2023-05-19T14:27:19;3.08;;;1.55;;
78752;SDS011;68072;51.688;7.842;2023-05-19T14:29:44;2.50;;;1.60;;
78752;SDS011;68072;51.688;7.842;2023-05-19T14:32:10;2.25;;;1.58;;
78752;SDS011;68072;51.688;7.842;2023-05-19T14:34:35;4.40;;;1.98;;
78752;SDS011;68072;51.688;7.842;2023-05-19T14:37:00;3.28;;;1.40;;
78752;SDS011;68072;51.688;7.842;2023-05-19T14:39:27;2.30;;;1.50;;
78752;SDS011;68072;51.688;7.842;2023-05-19T14:41:53;1.67;;;1.35;;
78752;SDS011;68072;51.688;7.842;2023-05-19T14:44:20;5.43;;;1.83;;
78752;SDS011;68072;51.688;7.842;2023-05-19T14:46:45;3.67;;;1.60;;
78752;SDS011;68072;51.688;7.842;2023-05-19T14:49:10;4.10;;;1.70;;
78752;SDS011;68072;51.688;7.842;2023-05-19T14:51:36;3.72;;;1.70;;
78752;SDS011;68072;51.688;7.842;2023-05-19T14:54:01;3.50;;;1.90;;
78752;SDS011;68072;51.688;7.842;2023-05-19T14:56:27;2.53;;;1.50;;
78752;SDS011;68072;51.688;7.842;2023-05-19T14:58:52;2.22;;;1.40;;
78752;SDS011;68072;51.688;7.842;2023-05-19T15:01:17;5.22;;;1.75;;
78752;SDS011;68072;51.688;7.842;2023-05-19T15:03:43;3.70;;;2.03;;
78752;SDS011;68072;51.688;7.842;2023-05-19T15:06:08;2.90;;;1.88;;
78752;SDS011;68072;51.688;7.842;2023-05-19T15:08:34;3.22;;;1.58;;
78752;SDS011;68072;51.688;7.842;2023-05-19T15:11:02;2.50;;;1.42;;
78752;SDS011;68072;51.688;7.842;2023-05-19T15:13:27;2.08;;;1.70;;
78752;SDS011;68072;51.688;7.842;2023-05-19T15:15:53;2.95;;;1.60;;
78752;SDS011;68072;51.688;7.842;2023-05-19T15:18:19;2.03;;;1.50;;
78752;SDS011;68072;51.688;7.842;2023-05-19T15:20:45;1.92;;;1.40;;
78752;SDS011;68072;51.688;7.842;2023-05-19T15:23:10;3.55;;;1.60;;
78752;SDS011;68072;51.688;7.842;2023-05-19T15:25:36;3.08;;;1.95;;
78752;SDS011;68072;51.688;7.842;2023-05-19T15:28:02;2.30;;;1.70;;
78752;SDS011;68072;51.688;7.842;2023-05-19T15:30:27;2.80;;;1.52;;
78752;SDS011;68072;51.688;7.842;2023-05-19T15:32:53;4.80;;;1.90;;
78752;SDS011;68072;51.688;7.842;2023-05-19T15:37:43;4.57;;;1.83;;
78752;SDS011;68072;51.688;7.842;2023-05-19T15:42:34;4.93;;;1.63;;
78752;SDS011;68072;51.688;7.842;2023-05-19T15:45:00;2.60;;;1.50;;
78752;SDS011;68072;51.688;7.842;2023-05-19T15:47:25;5.03;;;1.60;;
78752;SDS011;68072;51.688;7.842;2023-05-19T15:49:50;3.05;;;1.40;;
78752;SDS011;68072;51.688;7.842;2023-05-19T15:52:16;3.70;;;1.70;;